createdAt,value
2019-03-08T00:00:03.139Z,83.09
2019-03-08T00:05:03.149Z,83.12
2019-03-08T00:10:02.570Z,83.12
2019-03-08T00:15:03.022Z,83.15
2019-03-08T00:20:02.440Z,83.16
2019-03-08T00:25:02.016Z,83.24
2019-03-08T00:30:02.403Z,83.24
2019-03-08T00:35:03.199Z,83.3
2019-03-08T00:40:01.865Z,83.3
2019-03-08T00:45:03.214Z,83.41
2019-03-08T00:50:02.551Z,83.43
2019-03-08T00:55:02.979Z,83.48
2019-03-08T01:00:02.392Z,83.58
2019-03-08T01:05:02.636Z,83.99
2019-03-08T01:10:03.081Z,84.0
2019-03-08T01:15:02.411Z,84.11
2019-03-08T01:20:02.834Z,84.04
2019-03-08T01:25:03.182Z,83.85
2019-03-08T01:30:02.516Z,83.77
2019-03-08T01:35:02.937Z,83.77
2019-03-08T01:40:02.354Z,83.77
2019-03-08T01:45:03.824Z,83.92
2019-03-08T01:50:03.251Z,83.88
2019-03-08T01:55:02.657Z,83.92
2019-03-08T02:00:03.083Z,83.98
2019-03-08T02:05:02.415Z,84.02
2019-03-08T02:10:02.971Z,84.09
2019-03-08T02:15:02.390Z,84.07
2019-03-08T02:20:02.838Z,84.12
2019-03-08T02:25:03.278Z,84.13
2019-03-08T02:30:02.995Z,84.37
2019-03-08T02:35:02.420Z,84.32
2019-03-08T02:40:02.873Z,84.48
2019-03-08T02:45:03.317Z,84.31
2019-03-08T02:50:02.930Z,84.21
2019-03-08T02:55:03.264Z,84.12
2019-03-08T03:00:02.729Z,84.16
2019-03-08T03:05:03.153Z,84.01
2019-03-08T03:10:02.598Z,84.01
2019-03-08T03:15:03.046Z,83.96
2019-03-08T03:20:01.682Z,83.94
2019-03-08T03:25:03.008Z,83.94
2019-03-08T03:30:02.703Z,83.95
2019-03-08T03:35:03.039Z,83.91
2019-03-08T03:40:02.486Z,83.92
2019-03-08T03:45:02.911Z,83.87
2019-03-08T03:50:03.230Z,83.88
2019-03-08T03:55:02.666Z,83.83
2019-03-08T04:00:03.109Z,83.79
2019-03-08T04:05:02.513Z,83.77
2019-03-08T04:10:03.163Z,83.76
2019-03-08T04:15:02.599Z,83.75
2019-03-08T04:20:03.028Z,83.74
2019-03-08T04:25:02.486Z,83.76
2019-03-08T04:30:02.890Z,83.72
2019-03-08T04:35:03.348Z,83.69
2019-03-08T04:40:02.840Z,83.7
2019-03-08T04:45:03.197Z,83.68
2019-03-08T04:50:02.816Z,83.68
2019-03-08T04:55:03.262Z,83.7
2019-03-08T05:00:02.684Z,83.75
2019-03-08T05:05:03.027Z,83.77
2019-03-08T05:10:02.562Z,83.78
2019-03-08T05:15:02.992Z,83.76
2019-03-08T05:20:02.412Z,83.74
2019-03-08T05:25:02.750Z,83.73
2019-03-08T05:30:02.675Z,83.74
2019-03-08T05:35:03.017Z,83.78
2019-03-08T05:40:02.546Z,83.76
2019-03-08T05:45:03.000Z,83.77
2019-03-08T05:50:02.402Z,83.77
2019-03-08T05:55:02.901Z,83.77
2019-03-08T06:00:03.344Z,83.81
2019-03-08T06:05:02.700Z,83.82
2019-03-08T06:10:03.155Z,83.82
2019-03-08T06:15:02.580Z,83.87
2019-03-08T06:20:03.013Z,83.85
2019-03-08T06:25:02.647Z,83.81
2019-03-08T06:30:03.090Z,83.85
2019-03-08T06:35:02.504Z,83.82
2019-03-08T06:40:02.936Z,83.89
2019-03-08T06:45:03.286Z,83.83
2019-03-08T06:50:02.779Z,83.85
2019-03-08T06:55:03.147Z,83.81
2019-03-08T07:00:02.489Z,83.82
2019-03-08T07:05:02.912Z,83.83
2019-03-08T07:10:02.426Z,83.89
2019-03-08T07:15:02.767Z,83.82
2019-03-08T07:20:03.216Z,83.78
2019-03-08T07:25:02.630Z,83.75
2019-03-08T07:30:02.985Z,83.74
2019-03-08T07:35:02.396Z,83.73
2019-03-08T07:40:02.834Z,83.74
2019-03-08T07:45:03.339Z,83.78
2019-03-08T07:50:02.692Z,83.79
2019-03-08T07:55:03.165Z,83.75
2019-03-08T08:00:02.579Z,83.68
2019-03-08T08:05:03.316Z,83.63
2019-03-08T08:10:02.869Z,83.66
2019-03-08T08:15:03.287Z,83.66
2019-03-08T08:20:02.703Z,83.64
2019-03-08T08:25:03.206Z,83.59
2019-03-08T08:30:02.558Z,83.52
2019-03-08T08:35:03.012Z,83.55
2019-03-08T08:40:03.034Z,83.55
2019-03-08T08:45:01.656Z,83.5
2019-03-08T08:50:03.005Z,83.39
2019-03-08T08:55:02.417Z,83.32
2019-03-08T09:00:02.771Z,83.22
2019-03-08T09:05:03.243Z,83.29
2019-03-08T09:10:02.722Z,83.27
2019-03-08T09:15:03.068Z,83.2
2019-03-08T09:20:02.829Z,83.21
2019-03-08T09:25:03.237Z,83.3
2019-03-08T09:30:02.682Z,83.34
2019-03-08T09:35:03.099Z,83.33
2019-03-08T09:40:02.505Z,83.38
2019-03-08T09:45:02.970Z,83.2
2019-03-08T09:50:02.384Z,83.13
2019-03-08T09:55:02.826Z,82.9
2019-03-08T10:00:02.584Z,82.72
2019-03-08T10:05:02.191Z,82.59
2019-03-08T10:10:02.618Z,82.59
2019-03-08T10:15:03.077Z,82.44
2019-03-08T10:20:02.411Z,82.39
2019-03-08T10:25:02.826Z,82.38
2019-03-08T10:30:03.265Z,82.24
2019-03-08T10:35:02.601Z,81.37
2019-03-08T10:40:03.337Z,80.63
2019-03-08T10:45:02.661Z,79.98
2019-03-08T10:50:03.135Z,80.05
2019-03-08T10:55:02.509Z,79.81
2019-03-08T11:00:02.856Z,79.56
2019-03-08T11:05:03.200Z,79.63
2019-03-08T11:10:02.958Z,79.49
2019-03-08T11:15:02.334Z,78.69
2019-03-08T11:20:02.175Z,78.83
2019-03-08T11:25:08.308Z,79.08
2019-03-08T11:30:03.160Z,79.29
2019-03-08T11:35:02.569Z,78.95
2019-03-08T11:40:03.014Z,78.82
2019-03-08T11:45:02.454Z,78.25
2019-03-08T11:50:02.880Z,78.2
2019-03-08T11:55:03.327Z,78.0
2019-03-08T12:00:02.839Z,77.98
2019-03-08T12:05:03.189Z,77.73
2019-03-08T12:10:02.599Z,77.51
2019-03-08T12:15:02.147Z,77.74
2019-03-08T12:20:01.900Z,77.83
2019-03-08T12:25:03.325Z,77.79
2019-03-08T12:30:04.386Z,77.5
2019-03-08T12:35:02.905Z,77.42
2019-03-08T12:40:02.429Z,77.36
2019-03-08T12:45:02.839Z,77.58
2019-03-08T12:50:03.283Z,77.61
2019-03-08T12:55:02.761Z,77.57
2019-03-08T13:00:03.145Z,77.41
2019-03-08T13:05:02.770Z,77.24
2019-03-08T13:10:03.230Z,77.22
2019-03-08T13:15:02.624Z,76.7
2019-03-08T13:20:03.090Z,76.71
2019-03-08T13:25:02.506Z,77.0
2019-03-08T13:30:02.933Z,77.23
2019-03-08T13:35:03.277Z,76.85
2019-03-08T13:40:02.688Z,77.04
2019-03-08T13:45:03.244Z,77.06
2019-03-08T13:50:02.652Z,77.09
2019-03-08T13:55:03.023Z,76.7
2019-03-08T14:00:02.405Z,76.68
2019-03-08T14:05:02.839Z,76.39
2019-03-08T14:10:03.312Z,76.35
2019-03-08T14:15:02.692Z,76.42
2019-03-08T14:20:03.071Z,76.27
2019-03-08T14:25:02.527Z,76.09
2019-03-08T14:30:02.939Z,75.93
2019-03-08T14:35:03.383Z,75.59
2019-03-08T14:40:02.784Z,75.97
2019-03-08T14:45:07.291Z,75.86
2019-03-08T14:50:03.263Z,76.28
2019-03-08T14:55:02.683Z,76.24
2019-03-08T15:00:03.021Z,76.2
2019-03-08T15:05:10.655Z,76.26
2019-03-08T15:10:06.053Z,76.47
2019-03-08T15:15:03.003Z,77.01
2019-03-08T15:20:02.346Z,77.01
2019-03-08T15:25:02.782Z,77.04
2019-03-08T15:30:03.127Z,77.18
2019-03-08T15:35:02.546Z,77.23
2019-03-08T15:40:03.158Z,77.35
2019-03-08T15:45:05.715Z,77.55
2019-03-08T15:50:04.566Z,77.54
2019-03-08T15:55:02.380Z,77.62
2019-03-08T16:00:02.815Z,77.73
2019-03-08T16:05:03.856Z,78.04
2019-03-08T16:10:02.362Z,78.23
2019-03-08T16:15:02.742Z,78.45
2019-03-08T16:20:03.948Z,78.59
2019-03-08T16:25:06.617Z,78.66
2019-03-08T16:30:09.408Z,78.72
2019-03-08T16:35:02.945Z,78.83
2019-03-08T16:40:02.381Z,78.88
2019-03-08T16:45:02.720Z,78.96
2019-03-08T16:50:03.191Z,79.04
2019-03-08T16:55:02.599Z,79.18
2019-03-08T17:00:02.927Z,79.26
2019-03-08T17:05:02.638Z,79.36
2019-03-08T17:10:03.079Z,79.46
2019-03-08T17:15:02.412Z,79.57
2019-03-08T17:20:02.039Z,79.62
2019-03-08T17:25:01.569Z,79.72
2019-03-08T17:30:03.023Z,79.79
2019-03-08T17:35:02.406Z,79.82
2019-03-08T17:40:02.874Z,79.84
2019-03-08T17:45:03.337Z,79.89
2019-03-08T17:50:02.737Z,79.93
2019-03-08T17:55:03.181Z,79.99
2019-03-08T18:00:02.590Z,80.01
2019-03-08T18:05:03.244Z,80.05
2019-03-08T18:10:02.655Z,80.05
2019-03-08T18:15:03.002Z,80.12
2019-03-08T18:20:01.524Z,80.17
2019-03-08T18:25:03.024Z,80.2
2019-03-08T18:30:02.551Z,80.22
2019-03-08T18:35:02.881Z,80.29
2019-03-08T18:40:03.269Z,80.31
2019-03-08T18:45:02.693Z,80.33
2019-03-08T18:50:03.030Z,80.35
2019-03-08T18:55:02.490Z,80.4
2019-03-08T19:00:02.935Z,80.38
2019-03-08T19:05:02.556Z,80.4
2019-03-08T19:10:03.004Z,80.42
2019-03-08T19:15:02.355Z,80.45
2019-03-08T19:20:02.720Z,80.46
2019-03-08T19:25:03.142Z,80.48
2019-03-08T19:30:02.590Z,80.49
2019-03-08T19:35:03.334Z,80.51
2019-03-08T19:40:01.951Z,80.5
2019-03-08T19:45:02.480Z,80.5
2019-03-08T19:50:02.955Z,80.53
2019-03-08T19:55:02.448Z,80.59
2019-03-08T20:00:03.257Z,80.6
2019-03-08T20:05:02.994Z,80.64
2019-03-08T20:10:02.511Z,80.68
2019-03-08T20:15:03.032Z,80.71
2019-03-08T20:20:02.798Z,80.73
2019-03-08T20:25:03.272Z,80.8
2019-03-08T20:30:02.698Z,80.85
2019-03-08T20:35:03.163Z,80.84
2019-03-08T20:40:02.653Z,80.91
2019-03-08T20:45:03.284Z,80.95
2019-03-08T20:50:02.768Z,81.0
2019-03-08T20:55:03.216Z,81.09
2019-03-08T21:00:02.574Z,81.11
2019-03-08T21:05:03.331Z,81.18
2019-03-08T21:10:02.897Z,81.22
2019-03-08T21:15:03.383Z,81.24
2019-03-08T21:20:04.749Z,81.3
2019-03-08T21:25:03.241Z,81.37
2019-03-08T21:30:03.645Z,81.38
2019-03-08T21:35:03.091Z,81.37
2019-03-08T21:40:02.577Z,81.39
2019-03-08T21:45:02.992Z,81.39
2019-03-08T21:50:02.456Z,81.41
2019-03-08T21:55:03.192Z,81.46
2019-03-08T22:00:02.746Z,81.51
2019-03-08T22:05:03.150Z,81.58
2019-03-08T22:10:02.604Z,81.61
2019-03-08T22:15:03.068Z,81.62
2019-03-08T22:20:02.643Z,81.55
2019-03-08T22:25:03.196Z,81.52
2019-03-08T22:30:02.623Z,81.51
2019-03-08T22:35:03.026Z,81.45
2019-03-08T22:40:02.558Z,81.53
2019-03-08T22:45:03.018Z,81.56
2019-03-08T22:50:02.399Z,81.59
2019-03-08T22:55:02.735Z,81.6
2019-03-08T23:00:03.179Z,81.64
2019-03-08T23:05:02.573Z,81.68
2019-03-08T23:10:03.023Z,81.71
2019-03-08T23:15:02.460Z,81.77
2019-03-08T23:20:03.150Z,81.77
2019-03-08T23:25:01.845Z,81.86
2019-03-08T23:30:03.224Z,81.87
2019-03-08T23:35:02.693Z,81.92
2019-03-08T23:40:03.129Z,81.93
2019-03-08T23:45:02.586Z,81.97
2019-03-08T23:50:02.980Z,81.99
2019-03-08T23:55:02.355Z,82.05
